Bovey Tracey, United Kingdom
Current Conditions -  °F | °C
As of 1:50 AM on Saturday 25 Oct 2014 (Local Time) from EGTE Reporting Station
Broken Clouds Broken Clouds  
Wind Chill: 10°   Ceiling: 3500
Heat Index: 10°   Visibility: 6mi
Dew Point:   Wind: 6mph
Humidity: 87%   Direction: 210°SSW
Pressure: 30.03"   Gusts: NA
Location:  50.59°N, 3.68°W
Report Text: EGTE 250050Z 21005KT 9999 BKN035 10/08 Q1017
Loading
Personal Weather Stations






























Interactive Weather Map
Tropical Storm Tracking
New forecast layout! Learn more

10-Day Weather Forecast

Advertisements
Track Severe Weather on mobile